Boulder Junction, Wisconsin
Current Conditions -  °F | °C
As of 4:35 AM on Thursday 18 Dec 2014 (Local Time) from KD25 Reporting Station
Overcast Overcast  
Wind Chill: 11°   Ceiling: 900
Heat Index: 19°   Visibility: 10mi
Dew Point: 17°   Wind: 6mph
Humidity: 91%   Direction: 20°NNE
Pressure: 30.24"   Gusts: NA
Location:  46.11°N, 89.64°W
Report Text: KD25 181035Z AUTO 02005KT 10SM OVC009 M07/M09 A3024 RMK AO2 T10731086
Loading
Personal Weather Stations






























Interactive Weather Map New forecast layout! Learn more

10-Day Weather Forecast

Advertisements
Track Severe Weather on mobile